sensor_id;sensor_type;location;lat;lon;timestamp;temperature;humidity
66119;DHT22;52912;48.564;9.302;2023-11-21T00:01:16;7.90;99.99
66119;DHT22;52912;48.564;9.302;2023-11-21T00:03:41;7.83;99.99
66119;DHT22;52912;48.564;9.302;2023-11-21T00:06:07;7.81;99.99
66119;DHT22;52912;48.564;9.302;2023-11-21T00:08:33;7.99;99.54
66119;DHT22;52912;48.564;9.302;2023-11-21T00:10:58;7.95;99.48
66119;DHT22;52912;48.564;9.302;2023-11-21T00:13:25;7.95;99.58
66119;DHT22;52912;48.564;9.302;2023-11-21T00:15:50;7.91;99.79
66119;DHT22;52912;48.564;9.302;2023-11-21T00:18:16;7.90;99.99
66119;DHT22;52912;48.564;9.302;2023-11-21T00:20:41;7.90;99.99
66119;DHT22;52912;48.564;9.302;2023-11-21T00:23:07;7.97;99.74
66119;DHT22;52912;48.564;9.302;2023-11-21T00:25:32;7.91;99.80
66119;DHT22;52912;48.564;9.302;2023-11-21T00:27:58;7.94;99.55
66119;DHT22;52912;48.564;9.302;2023-11-21T00:30:24;7.94;99.83
66119;DHT22;52912;48.564;9.302;2023-11-21T00:32:50;7.90;99.76
66119;DHT22;52912;48.564;9.302;2023-11-21T00:35:15;7.92;99.99
66119;DHT22;52912;48.564;9.302;2023-11-21T00:37:41;7.97;99.50
66119;DHT22;52912;48.564;9.302;2023-11-21T00:40:07;7.99;99.11
66119;DHT22;52912;48.564;9.302;2023-11-21T00:42:33;7.99;99.21
66119;DHT22;52912;48.564;9.302;2023-11-21T00:44:58;7.95;99.13
66119;DHT22;52912;48.564;9.302;2023-11-21T00:47:26;8.03;98.75
66119;DHT22;52912;48.564;9.302;2023-11-21T00:49:51;7.99;98.81
66119;DHT22;52912;48.564;9.302;2023-11-21T00:52:17;8.01;98.98
66119;DHT22;52912;48.564;9.302;2023-11-21T00:54:42;7.99;98.93
66119;DHT22;52912;48.564;9.302;2023-11-21T00:57:08;7.98;99.22
66119;DHT22;52912;48.564;9.302;2023-11-21T00:59:33;7.94;99.50
66119;DHT22;52912;48.564;9.302;2023-11-21T01:01:59;7.99;99.27
66119;DHT22;52912;48.564;9.302;2023-11-21T01:04:26;7.98;99.60
66119;DHT22;52912;48.564;9.302;2023-11-21T01:06:51;7.97;99.87
66119;DHT22;52912;48.564;9.302;2023-11-21T01:09:17;7.97;99.54
66119;DHT22;52912;48.564;9.302;2023-11-21T01:11:42;7.99;99.53
66119;DHT22;52912;48.564;9.302;2023-11-21T01:14:07;7.99;99.57
66119;DHT22;52912;48.564;9.302;2023-11-21T01:16:33;7.99;99.79
66119;DHT22;52912;48.564;9.302;2023-11-21T01:18:58;7.97;99.74
66119;DHT22;52912;48.564;9.302;2023-11-21T01:21:25;8.02;99.09
66119;DHT22;52912;48.564;9.302;2023-11-21T01:23:51;8.09;98.88
66119;DHT22;52912;48.564;9.302;2023-11-21T01:26:16;7.95;98.87
66119;DHT22;52912;48.564;9.302;2023-11-21T01:28:42;7.91;98.93
66119;DHT22;52912;48.564;9.302;2023-11-21T01:31:07;7.97;99.20
66119;DHT22;52912;48.564;9.302;2023-11-21T01:33:33;8.02;98.88
66119;DHT22;52912;48.564;9.302;2023-11-21T01:35:58;8.01;98.69
66119;DHT22;52912;48.564;9.302;2023-11-21T01:38:25;7.98;98.76
66119;DHT22;52912;48.564;9.302;2023-11-21T01:40:50;7.95;98.73
66119;DHT22;52912;48.564;9.302;2023-11-21T01:43:16;7.92;98.64
66119;DHT22;52912;48.564;9.302;2023-11-21T01:45:41;7.95;98.77
66119;DHT22;52912;48.564;9.302;2023-11-21T01:48:07;7.91;99.26
66119;DHT22;52912;48.564;9.302;2023-11-21T01:50:33;7.91;98.96
66119;DHT22;52912;48.564;9.302;2023-11-21T01:52:59;7.92;98.98
66119;DHT22;52912;48.564;9.302;2023-11-21T01:55:27;7.90;98.96
66119;DHT22;52912;48.564;9.302;2023-11-21T01:57:53;7.85;99.99
66119;DHT22;52912;48.564;9.302;2023-11-21T02:00:19;7.90;98.47
66119;DHT22;52912;48.564;9.302;2023-11-21T02:02:45;7.90;97.81
66119;DHT22;52912;48.564;9.302;2023-11-21T02:05:11;7.87;97.86
66119;DHT22;52912;48.564;9.302;2023-11-21T02:07:36;7.94;97.76
66119;DHT22;52912;48.564;9.302;2023-11-21T02:10:04;7.85;97.69
66119;DHT22;52912;48.564;9.302;2023-11-21T02:12:31;7.85;98.01
66119;DHT22;52912;48.564;9.302;2023-11-21T02:14:56;7.88;96.87
66119;DHT22;52912;48.564;9.302;2023-11-21T02:17:22;7.92;97.17
66119;DHT22;52912;48.564;9.302;2023-11-21T02:19:47;7.88;97.57
66119;DHT22;52912;48.564;9.302;2023-11-21T02:22:13;7.91;97.29
66119;DHT22;52912;48.564;9.302;2023-11-21T02:24:41;7.98;96.72
66119;DHT22;52912;48.564;9.302;2023-11-21T02:27:06;7.92;97.03
66119;DHT22;52912;48.564;9.302;2023-11-21T02:29:32;7.88;96.71
66119;DHT22;52912;48.564;9.302;2023-11-21T02:31:57;7.90;96.40
66119;DHT22;52912;48.564;9.302;2023-11-21T02:34:23;7.94;96.18
66119;DHT22;52912;48.564;9.302;2023-11-21T02:36:48;7.97;96.44
66119;DHT22;52912;48.564;9.302;2023-11-21T02:39:14;8.01;96.31
66119;DHT22;52912;48.564;9.302;2023-11-21T02:41:41;7.95;95.80
66119;DHT22;52912;48.564;9.302;2023-11-21T02:44:06;7.95;95.96
66119;DHT22;52912;48.564;9.302;2023-11-21T02:46:32;7.90;96.57
66119;DHT22;52912;48.564;9.302;2023-11-21T02:48:57;7.91;96.56
66119;DHT22;52912;48.564;9.302;2023-11-21T02:51:23;7.85;96.06
66119;DHT22;52912;48.564;9.302;2023-11-21T02:53:48;7.84;96.20
66119;DHT22;52912;48.564;9.302;2023-11-21T02:56:14;7.80;96.62
66119;DHT22;52912;48.564;9.302;2023-11-21T02:58:44;7.83;96.94
66119;DHT22;52912;48.564;9.302;2023-11-21T03:01:09;7.75;96.94
66119;DHT22;52912;48.564;9.302;2023-11-21T03:03:34;7.75;96.83
66119;DHT22;52912;48.564;9.302;2023-11-21T03:06:00;7.80;96.03
66119;DHT22;52912;48.564;9.302;2023-11-21T03:08:25;7.81;96.57
66119;DHT22;52912;48.564;9.302;2023-11-21T03:10:51;7.83;96.69
66119;DHT22;52912;48.564;9.302;2023-11-21T03:13:16;7.80;96.46
66119;DHT22;52912;48.564;9.302;2023-11-21T03:15:43;7.78;97.09
66119;DHT22;52912;48.564;9.302;2023-11-21T03:18:09;7.81;95.55
66119;DHT22;52912;48.564;9.302;2023-11-21T03:20:34;7.77;96.09
66119;DHT22;52912;48.564;9.302;2023-11-21T03:22:59;7.81;96.37
66119;DHT22;52912;48.564;9.302;2023-11-21T03:25:25;7.80;96.46
66119;DHT22;52912;48.564;9.302;2023-11-21T03:27:50;7.75;96.86
66119;DHT22;52912;48.564;9.302;2023-11-21T03:30:16;7.74;97.06
66119;DHT22;52912;48.564;9.302;2023-11-21T03:32:43;7.74;96.96
66119;DHT22;52912;48.564;9.302;2023-11-21T03:35:08;7.73;97.47
66119;DHT22;52912;48.564;9.302;2023-11-21T03:37:34;7.70;97.32
66119;DHT22;52912;48.564;9.302;2023-11-21T03:39:59;7.66;97.43
66119;DHT22;52912;48.564;9.302;2023-11-21T03:42:25;7.67;96.99
66119;DHT22;52912;48.564;9.302;2023-11-21T03:44:50;7.67;96.98
66119;DHT22;52912;48.564;9.302;2023-11-21T03:47:15;7.69;97.09
66119;DHT22;52912;48.564;9.302;2023-11-21T03:49:42;7.71;96.80
66119;DHT22;52912;48.564;9.302;2023-11-21T03:52:08;7.73;96.87
66119;DHT22;52912;48.564;9.302;2023-11-21T03:54:33;7.70;96.93
66119;DHT22;52912;48.564;9.302;2023-11-21T03:56:59;7.73;96.75
66119;DHT22;52912;48.564;9.302;2023-11-21T03:59:24;7.71;96.29
66119;DHT22;52912;48.564;9.302;2023-11-21T04:01:49;7.73;96.53
66119;DHT22;52912;48.564;9.302;2023-11-21T04:04:15;7.75;96.17
66119;DHT22;52912;48.564;9.302;2023-11-21T04:06:42;7.71;96.83
66119;DHT22;52912;48.564;9.302;2023-11-21T04:09:08;7.75;96.71
66119;DHT22;52912;48.564;9.302;2023-11-21T04:11:33;7.78;96.67
66119;DHT22;52912;48.564;9.302;2023-11-21T04:13:59;7.78;96.61
66119;DHT22;52912;48.564;9.302;2023-11-21T04:16:24;7.71;96.58
66119;DHT22;52912;48.564;9.302;2023-11-21T04:18:50;7.73;96.44
66119;DHT22;52912;48.564;9.302;2023-11-21T04:21:15;7.77;96.24
66119;DHT22;52912;48.564;9.302;2023-11-21T04:23:42;7.78;96.67
66119;DHT22;52912;48.564;9.302;2023-11-21T04:26:08;7.75;96.82
66119;DHT22;52912;48.564;9.302;2023-11-21T04:28:33;7.75;96.63
66119;DHT22;52912;48.564;9.302;2023-11-21T04:30:59;7.81;96.06
66119;DHT22;52912;48.564;9.302;2023-11-21T04:33:24;7.77;96.36
66119;DHT22;52912;48.564;9.302;2023-11-21T04:35:49;7.80;96.29
66119;DHT22;52912;48.564;9.302;2023-11-21T04:38:15;7.78;96.40
66119;DHT22;52912;48.564;9.302;2023-11-21T04:40:42;7.78;96.80
66119;DHT22;52912;48.564;9.302;2023-11-21T04:43:07;7.78;96.76
66119;DHT22;52912;48.564;9.302;2023-11-21T04:45:33;7.77;96.98
66119;DHT22;52912;48.564;9.302;2023-11-21T04:47:58;7.74;96.83
66119;DHT22;52912;48.564;9.302;2023-11-21T04:50:23;7.78;96.82
66119;DHT22;52912;48.564;9.302;2023-11-21T04:52:49;7.74;96.79
66119;DHT22;52912;48.564;9.302;2023-11-21T04:55:14;7.75;96.78
66119;DHT22;52912;48.564;9.302;2023-11-21T04:57:41;7.74;96.74
66119;DHT22;52912;48.564;9.302;2023-11-21T05:00:08;7.74;96.91
66119;DHT22;52912;48.564;9.302;2023-11-21T05:02:33;7.71;97.13
66119;DHT22;52912;48.564;9.302;2023-11-21T05:04:59;7.71;97.32
66119;DHT22;52912;48.564;9.302;2023-11-21T05:07:24;7.71;97.12
66119;DHT22;52912;48.564;9.302;2023-11-21T05:09:50;7.69;97.40
66119;DHT22;52912;48.564;9.302;2023-11-21T05:12:15;7.71;97.32
66119;DHT22;52912;48.564;9.302;2023-11-21T05:14:42;7.70;97.45
66119;DHT22;52912;48.564;9.302;2023-11-21T05:17:07;7.69;97.63
66119;DHT22;52912;48.564;9.302;2023-11-21T05:19:33;7.67;97.52
66119;DHT22;52912;48.564;9.302;2023-11-21T05:21:59;7.64;97.85
66119;DHT22;52912;48.564;9.302;2023-11-21T05:24:24;7.66;98.09
66119;DHT22;52912;48.564;9.302;2023-11-21T05:26:49;7.66;97.80
66119;DHT22;52912;48.564;9.302;2023-11-21T05:29:15;7.70;97.70
66119;DHT22;52912;48.564;9.302;2023-11-21T05:31:42;7.69;97.72
66119;DHT22;52912;48.564;9.302;2023-11-21T05:34:07;7.60;97.81
66119;DHT22;52912;48.564;9.302;2023-11-21T05:36:33;7.64;97.79
66119;DHT22;52912;48.564;9.302;2023-11-21T05:38:58;7.67;97.76
66119;DHT22;52912;48.564;9.302;2023-11-21T05:41:24;7.63;98.10
66119;DHT22;52912;48.564;9.302;2023-11-21T05:43:49;7.57;98.59
66119;DHT22;52912;48.564;9.302;2023-11-21T05:46:15;7.57;98.76
66119;DHT22;52912;48.564;9.302;2023-11-21T05:48:41;7.52;98.61
66119;DHT22;52912;48.564;9.302;2023-11-21T05:51:07;7.52;98.71
66119;DHT22;52912;48.564;9.302;2023-11-21T05:53:32;7.50;98.73
66119;DHT22;52912;48.564;9.302;2023-11-21T05:55:58;7.50;98.90
66119;DHT22;52912;48.564;9.302;2023-11-21T05:58:23;7.55;98.96
66119;DHT22;52912;48.564;9.302;2023-11-21T06:00:49;7.60;98.93
66119;DHT22;52912;48.564;9.302;2023-11-21T06:03:14;7.52;98.94
66119;DHT22;52912;48.564;9.302;2023-11-21T06:05:41;7.42;99.39
66119;DHT22;52912;48.564;9.302;2023-11-21T06:08:07;7.43;99.60
66119;DHT22;52912;48.564;9.302;2023-11-21T06:10:32;7.46;99.99
66119;DHT22;52912;48.564;9.302;2023-11-21T06:12:58;7.52;99.99
66119;DHT22;52912;48.564;9.302;2023-11-21T06:15:23;7.55;99.99
66119;DHT22;52912;48.564;9.302;2023-11-21T06:17:49;7.38;99.99
66119;DHT22;52912;48.564;9.302;2023-11-21T06:20:15;7.35;99.99
66119;DHT22;52912;48.564;9.302;2023-11-21T06:22:42;7.35;99.99
66119;DHT22;52912;48.564;9.302;2023-11-21T06:25:08;7.36;99.99
66119;DHT22;52912;48.564;9.302;2023-11-21T06:27:34;7.36;99.99
66119;DHT22;52912;48.564;9.302;2023-11-21T06:30:01;7.45;99.99
66119;DHT22;52912;48.564;9.302;2023-11-21T06:32:27;7.36;99.96
66119;DHT22;52912;48.564;9.302;2023-11-21T06:34:52;7.45;99.99
66119;DHT22;52912;48.564;9.302;2023-11-21T06:37:17;7.45;99.99
66119;DHT22;52912;48.564;9.302;2023-11-21T06:39:45;7.39;99.98
66119;DHT22;52912;48.564;9.302;2023-11-21T06:42:10;7.40;99.99
66119;DHT22;52912;48.564;9.302;2023-11-21T06:44:36;7.39;99.99
66119;DHT22;52912;48.564;9.302;2023-11-21T06:47:01;7.39;99.97
66119;DHT22;52912;48.564;9.302;2023-11-21T06:49:27;7.39;99.99
66119;DHT22;52912;48.564;9.302;2023-11-21T06:51:52;7.43;99.99
66119;DHT22;52912;48.564;9.302;2023-11-21T06:54:18;7.43;99.99
66119;DHT22;52912;48.564;9.302;2023-11-21T06:56:44;7.52;99.80
66119;DHT22;52912;48.564;9.302;2023-11-21T06:59:10;7.55;99.86
66119;DHT22;52912;48.564;9.302;2023-11-21T07:01:35;7.62;99.41
66119;DHT22;52912;48.564;9.302;2023-11-21T07:04:01;7.56;99.57
66119;DHT22;52912;48.564;9.302;2023-11-21T07:06:26;7.59;99.34
66119;DHT22;52912;48.564;9.302;2023-11-21T07:08:52;7.63;99.38
66119;DHT22;52912;48.564;9.302;2023-11-21T07:11:17;7.66;99.25
66119;DHT22;52912;48.564;9.302;2023-11-21T07:13:44;7.69;99.29
66119;DHT22;52912;48.564;9.302;2023-11-21T07:16:09;7.70;99.55
66119;DHT22;52912;48.564;9.302;2023-11-21T07:18:35;7.69;99.46
66119;DHT22;52912;48.564;9.302;2023-11-21T07:21:00;7.71;99.34
66119;DHT22;52912;48.564;9.302;2023-11-21T07:23:26;7.73;99.22
66119;DHT22;52912;48.564;9.302;2023-11-21T07:25:51;7.75;99.72
66119;DHT22;52912;48.564;9.302;2023-11-21T07:28:17;7.85;99.20
66119;DHT22;52912;48.564;9.302;2023-11-21T07:30:43;7.98;98.76
66119;DHT22;52912;48.564;9.302;2023-11-21T07:33:09;7.97;98.81
66119;DHT22;52912;48.564;9.302;2023-11-21T07:35:34;8.01;98.19
66119;DHT22;52912;48.564;9.302;2023-11-21T07:38:00;8.05;98.61
66119;DHT22;52912;48.564;9.302;2023-11-21T07:40:25;8.08;98.07
66119;DHT22;52912;48.564;9.302;2023-11-21T07:42:51;8.24;97.48
66119;DHT22;52912;48.564;9.302;2023-11-21T07:45:16;8.24;97.69
66119;DHT22;52912;48.564;9.302;2023-11-21T07:47:43;8.29;97.59
66119;DHT22;52912;48.564;9.302;2023-11-21T07:50:09;8.39;97.29
66119;DHT22;52912;48.564;9.302;2023-11-21T07:52:35;8.37;97.55
66119;DHT22;52912;48.564;9.302;2023-11-21T07:55:00;8.32;97.64
66119;DHT22;52912;48.564;9.302;2023-11-21T07:57:26;8.28;97.59
66119;DHT22;52912;48.564;9.302;2023-11-21T07:59:51;8.28;98.05
66119;DHT22;52912;48.564;9.302;2023-11-21T08:02:16;8.29;97.94
66119;DHT22;52912;48.564;9.302;2023-11-21T08:04:43;8.28;98.49
66119;DHT22;52912;48.564;9.302;2023-11-21T08:07:10;8.26;98.46
66119;DHT22;52912;48.564;9.302;2023-11-21T08:09:35;8.28;98.52
66119;DHT22;52912;48.564;9.302;2023-11-21T08:12:01;8.37;98.27
66119;DHT22;52912;48.564;9.302;2023-11-21T08:14:26;8.30;98.07
66119;DHT22;52912;48.564;9.302;2023-11-21T08:16:52;8.33;98.12
66119;DHT22;52912;48.564;9.302;2023-11-21T08:19:17;8.33;98.16
66119;DHT22;52912;48.564;9.302;2023-11-21T08:21:44;8.36;98.41
66119;DHT22;52912;48.564;9.302;2023-11-21T08:24:09;8.36;98.27
66119;DHT22;52912;48.564;9.302;2023-11-21T08:26:35;8.37;98.35
66119;DHT22;52912;48.564;9.302;2023-11-21T08:29:00;8.47;98.16
66119;DHT22;52912;48.564;9.302;2023-11-21T08:31:26;8.50;98.08
66119;DHT22;52912;48.564;9.302;2023-11-21T08:33:52;8.59;97.75
66119;DHT22;52912;48.564;9.302;2023-11-21T08:36:17;8.67;97.83
66119;DHT22;52912;48.564;9.302;2023-11-21T08:38:44;8.75;97.88
66119;DHT22;52912;48.564;9.302;2023-11-21T08:41:09;8.88;97.21
66119;DHT22;52912;48.564;9.302;2023-11-21T08:43:35;8.84;96.88
66119;DHT22;52912;48.564;9.302;2023-11-21T08:46:00;8.93;97.12
66119;DHT22;52912;48.564;9.302;2023-11-21T08:48:26;8.89;96.46
66119;DHT22;52912;48.564;9.302;2023-11-21T08:50:51;8.95;97.02
66119;DHT22;52912;48.564;9.302;2023-11-21T08:53:17;8.95;96.95
66119;DHT22;52912;48.564;9.302;2023-11-21T08:55:44;8.91;96.66
66119;DHT22;52912;48.564;9.302;2023-11-21T08:58:09;8.89;96.39
66119;DHT22;52912;48.564;9.302;2023-11-21T09:00:34;8.95;96.86
66119;DHT22;52912;48.564;9.302;2023-11-21T09:03:01;8.99;96.58
66119;DHT22;52912;48.564;9.302;2023-11-21T09:05:26;8.99;96.76
66119;DHT22;52912;48.564;9.302;2023-11-21T09:07:51;9.02;96.63
66119;DHT22;52912;48.564;9.302;2023-11-21T09:10:17;9.12;96.57
66119;DHT22;52912;48.564;9.302;2023-11-21T09:12:44;9.19;96.51
66119;DHT22;52912;48.564;9.302;2023-11-21T09:15:10;9.25;96.92
66119;DHT22;52912;48.564;9.302;2023-11-21T09:17:35;9.09;95.89
66119;DHT22;52912;48.564;9.302;2023-11-21T09:20:01;9.25;96.11
66119;DHT22;52912;48.564;9.302;2023-11-21T09:22:27;9.35;96.00
66119;DHT22;52912;48.564;9.302;2023-11-21T09:24:52;9.30;95.81
66119;DHT22;52912;48.564;9.302;2023-11-21T09:27:19;9.25;96.06
66119;DHT22;52912;48.564;9.302;2023-11-21T09:29:46;9.26;96.13
66119;DHT22;52912;48.564;9.302;2023-11-21T09:32:11;9.39;95.82
66119;DHT22;52912;48.564;9.302;2023-11-21T09:34:37;9.40;95.61
66119;DHT22;52912;48.564;9.302;2023-11-21T09:37:03;9.44;96.02
66119;DHT22;52912;48.564;9.302;2023-11-21T09:39:28;9.42;95.70
66119;DHT22;52912;48.564;9.302;2023-11-21T09:42:04;9.51;96.26
66119;DHT22;52912;48.564;9.302;2023-11-21T09:44:35;9.47;95.48
66119;DHT22;52912;48.564;9.302;2023-11-21T09:47:03;9.29;95.50
66119;DHT22;52912;48.564;9.302;2023-11-21T09:49:30;9.33;95.25
66119;DHT22;52912;48.564;9.302;2023-11-21T09:51:58;9.35;94.85
66119;DHT22;52912;48.564;9.302;2023-11-21T09:54:26;9.44;94.91
66119;DHT22;52912;48.564;9.302;2023-11-21T09:56:51;9.33;93.72
66119;DHT22;52912;48.564;9.302;2023-11-21T09:59:16;9.35;93.87
66119;DHT22;52912;48.564;9.302;2023-11-21T10:01:42;9.30;93.90
66119;DHT22;52912;48.564;9.302;2023-11-21T10:04:09;9.55;94.24
66119;DHT22;52912;48.564;9.302;2023-11-21T10:06:35;9.61;93.95
66119;DHT22;52912;48.564;9.302;2023-11-21T10:09:01;9.73;93.08
66119;DHT22;52912;48.564;9.302;2023-11-21T10:11:27;9.75;93.17
66119;DHT22;52912;48.564;9.302;2023-11-21T10:13:54;9.85;93.24
66119;DHT22;52912;48.564;9.302;2023-11-21T10:16:20;9.78;93.15
66119;DHT22;52912;48.564;9.302;2023-11-21T10:18:48;9.75;93.48
66119;DHT22;52912;48.564;9.302;2023-11-21T10:21:18;9.71;93.76
66119;DHT22;52912;48.564;9.302;2023-11-21T10:23:44;9.58;93.70
66119;DHT22;52912;48.564;9.302;2023-11-21T10:26:11;9.61;94.18
66119;DHT22;52912;48.564;9.302;2023-11-21T10:28:37;9.60;94.64
66119;DHT22;52912;48.564;9.302;2023-11-21T10:31:02;9.55;95.31
66119;DHT22;52912;48.564;9.302;2023-11-21T10:33:28;9.55;95.89
66119;DHT22;52912;48.564;9.302;2023-11-21T10:35:53;9.47;96.69
66119;DHT22;52912;48.564;9.302;2023-11-21T10:38:20;9.42;95.87
66119;DHT22;52912;48.564;9.302;2023-11-21T10:40:46;9.35;96.41
66119;DHT22;52912;48.564;9.302;2023-11-21T10:43:12;9.36;97.09
66119;DHT22;52912;48.564;9.302;2023-11-21T10:45:37;9.40;97.30
66119;DHT22;52912;48.564;9.302;2023-11-21T10:48:05;9.37;96.50
66119;DHT22;52912;48.564;9.302;2023-11-21T10:50:32;9.37;96.87
66119;DHT22;52912;48.564;9.302;2023-11-21T10:52:58;9.36;96.07
66119;DHT22;52912;48.564;9.302;2023-11-21T10:55:25;9.25;95.17
66119;DHT22;52912;48.564;9.302;2023-11-21T10:57:52;9.37;95.82
66119;DHT22;52912;48.564;9.302;2023-11-21T11:00:19;9.33;95.70
66119;DHT22;52912;48.564;9.302;2023-11-21T11:02:45;9.26;96.61
66119;DHT22;52912;48.564;9.302;2023-11-21T11:05:12;9.30;97.11
66119;DHT22;52912;48.564;9.302;2023-11-21T11:07:38;9.22;97.20
66119;DHT22;52912;48.564;9.302;2023-11-21T11:10:06;9.23;97.82
66119;DHT22;52912;48.564;9.302;2023-11-21T11:12:35;9.27;97.64
66119;DHT22;52912;48.564;9.302;2023-11-21T11:15:01;9.07;97.61
66119;DHT22;52912;48.564;9.302;2023-11-21T11:17:26;9.20;97.91
66119;DHT22;52912;48.564;9.302;2023-11-21T11:19:52;9.25;97.40
66119;DHT22;52912;48.564;9.302;2023-11-21T11:22:28;9.32;97.81
66119;DHT22;52912;48.564;9.302;2023-11-21T11:25:07;9.43;98.36
66119;DHT22;52912;48.564;9.302;2023-11-21T11:27:44;9.53;97.61
66119;DHT22;52912;48.564;9.302;2023-11-21T11:30:21;9.54;98.30
66119;DHT22;52912;48.564;9.302;2023-11-21T11:32:57;9.51;97.86
66119;DHT22;52912;48.564;9.302;2023-11-21T11:35:29;9.43;97.28
66119;DHT22;52912;48.564;9.302;2023-11-21T11:37:59;9.48;97.51
66119;DHT22;52912;48.564;9.302;2023-11-21T11:40:26;9.33;97.30
66119;DHT22;52912;48.564;9.302;2023-11-21T11:43:06;9.29;97.20
66119;DHT22;52912;48.564;9.302;2023-11-21T11:45:32;9.36;97.20
66119;DHT22;52912;48.564;9.302;2023-11-21T11:47:59;9.36;97.21
66119;DHT22;52912;48.564;9.302;2023-11-21T11:50:25;9.40;96.87
66119;DHT22;52912;48.564;9.302;2023-11-21T11:52:51;9.42;96.58
66119;DHT22;52912;48.564;9.302;2023-11-21T11:55:18;9.35;95.80
66119;DHT22;52912;48.564;9.302;2023-11-21T11:57:45;9.27;95.98
66119;DHT22;52912;48.564;9.302;2023-11-21T12:00:14;9.33;96.46
66119;DHT22;52912;48.564;9.302;2023-11-21T12:02:40;9.39;96.46
66119;DHT22;52912;48.564;9.302;2023-11-21T12:05:12;9.27;96.76
66119;DHT22;52912;48.564;9.302;2023-11-21T12:07:42;9.33;97.20
66119;DHT22;52912;48.564;9.302;2023-11-21T12:10:11;9.30;97.52
66119;DHT22;52912;48.564;9.302;2023-11-21T12:12:37;9.32;97.17
66119;DHT22;52912;48.564;9.302;2023-11-21T12:15:03;9.33;97.36
66119;DHT22;52912;48.564;9.302;2023-11-21T12:17:30;9.36;97.82
66119;DHT22;52912;48.564;9.302;2023-11-21T12:20:04;9.43;98.26
66119;DHT22;52912;48.564;9.302;2023-11-21T12:22:29;9.43;98.44
66119;DHT22;52912;48.564;9.302;2023-11-21T12:24:55;9.48;98.80
66119;DHT22;52912;48.564;9.302;2023-11-21T12:27:21;9.43;98.66
66119;DHT22;52912;48.564;9.302;2023-11-21T12:29:46;9.39;98.97
66119;DHT22;52912;48.564;9.302;2023-11-21T12:32:11;9.29;99.37
66119;DHT22;52912;48.564;9.302;2023-11-21T12:34:38;9.27;98.88
66119;DHT22;52912;48.564;9.302;2023-11-21T12:37:04;9.29;98.93
66119;DHT22;52912;48.564;9.302;2023-11-21T12:39:30;9.18;98.68
66119;DHT22;52912;48.564;9.302;2023-11-21T12:41:55;9.22;98.96
66119;DHT22;52912;48.564;9.302;2023-11-21T12:44:21;9.16;99.07
66119;DHT22;52912;48.564;9.302;2023-11-21T12:46:46;9.20;99.55
66119;DHT22;52912;48.564;9.302;2023-11-21T12:49:12;9.07;99.49
66119;DHT22;52912;48.564;9.302;2023-11-21T12:51:39;8.98;99.99
66119;DHT22;52912;48.564;9.302;2023-11-21T12:54:05;9.04;99.99
66119;DHT22;52912;48.564;9.302;2023-11-21T12:56:31;9.20;99.99
66119;DHT22;52912;48.564;9.302;2023-11-21T12:58:57;9.18;99.99
66119;DHT22;52912;48.564;9.302;2023-11-21T13:01:25;9.37;99.99
66119;DHT22;52912;48.564;9.302;2023-11-21T13:03:51;9.40;99.33
66119;DHT22;52912;48.564;9.302;2023-11-21T13:06:18;9.37;99.09
66119;DHT22;52912;48.564;9.302;2023-11-21T13:08:45;9.35;99.55
66119;DHT22;52912;48.564;9.302;2023-11-21T13:11:11;9.39;99.54
66119;DHT22;52912;48.564;9.302;2023-11-21T13:13:40;9.43;98.52
66119;DHT22;52912;48.564;9.302;2023-11-21T13:16:07;9.50;98.87
66119;DHT22;52912;48.564;9.302;2023-11-21T13:18:32;9.47;98.94
66119;DHT22;52912;48.564;9.302;2023-11-21T13:20:59;9.35;98.98
66119;DHT22;52912;48.564;9.302;2023-11-21T13:23:25;9.36;99.40
66119;DHT22;52912;48.564;9.302;2023-11-21T13:25:53;9.32;98.66
66119;DHT22;52912;48.564;9.302;2023-11-21T13:28:18;9.22;98.96
66119;DHT22;52912;48.564;9.302;2023-11-21T13:30:44;9.15;99.36
66119;DHT22;52912;48.564;9.302;2023-11-21T13:33:09;9.20;99.03
66119;DHT22;52912;48.564;9.302;2023-11-21T13:35:36;9.11;99.45
66119;DHT22;52912;48.564;9.302;2023-11-21T13:38:04;9.16;99.38
66119;DHT22;52912;48.564;9.302;2023-11-21T13:40:30;9.22;99.75
66119;DHT22;52912;48.564;9.302;2023-11-21T13:42:57;9.20;99.45
66119;DHT22;52912;48.564;9.302;2023-11-21T13:45:22;9.25;99.57
66119;DHT22;52912;48.564;9.302;2023-11-21T13:47:49;9.30;99.75
66119;DHT22;52912;48.564;9.302;2023-11-21T13:50:14;9.35;99.99
66119;DHT22;52912;48.564;9.302;2023-11-21T13:52:40;9.44;99.79
66119;DHT22;52912;48.564;9.302;2023-11-21T13:55:06;9.37;99.10
66119;DHT22;52912;48.564;9.302;2023-11-21T13:57:31;9.36;99.26
66119;DHT22;52912;48.564;9.302;2023-11-21T13:59:58;9.30;99.13
66119;DHT22;52912;48.564;9.302;2023-11-21T14:02:23;9.25;99.31
66119;DHT22;52912;48.564;9.302;2023-11-21T14:04:49;9.32;99.33
66119;DHT22;52912;48.564;9.302;2023-11-21T14:07:14;9.29;98.90
66119;DHT22;52912;48.564;9.302;2023-11-21T14:09:40;9.33;98.82
66119;DHT22;52912;48.564;9.302;2023-11-21T14:12:06;9.20;98.74
66119;DHT22;52912;48.564;9.302;2023-11-21T14:14:31;9.35;98.84
66119;DHT22;52912;48.564;9.302;2023-11-21T14:16:58;9.32;98.71
66119;DHT22;52912;48.564;9.302;2023-11-21T14:19:24;9.37;98.69
66119;DHT22;52912;48.564;9.302;2023-11-21T14:21:49;9.33;98.52
66119;DHT22;52912;48.564;9.302;2023-11-21T14:24:15;9.29;98.65
66119;DHT22;52912;48.564;9.302;2023-11-21T14:26:41;9.32;98.59
66119;DHT22;52912;48.564;9.302;2023-11-21T14:29:06;9.26;98.91
66119;DHT22;52912;48.564;9.302;2023-11-21T14:31:32;9.23;99.31
66119;DHT22;52912;48.564;9.302;2023-11-21T14:33:59;9.23;99.13
66119;DHT22;52912;48.564;9.302;2023-11-21T14:36:24;9.32;98.40
66119;DHT22;52912;48.564;9.302;2023-11-21T14:38:50;9.16;98.93
66119;DHT22;52912;48.564;9.302;2023-11-21T14:41:15;9.12;98.85
66119;DHT22;52912;48.564;9.302;2023-11-21T14:43:41;9.14;98.87
66119;DHT22;52912;48.564;9.302;2023-11-21T14:46:06;9.16;98.93
66119;DHT22;52912;48.564;9.302;2023-11-21T14:48:32;9.19;98.91
66119;DHT22;52912;48.564;9.302;2023-11-21T14:50:58;9.18;99.64
66119;DHT22;52912;48.564;9.302;2023-11-21T14:53:24;9.12;99.65
66119;DHT22;52912;48.564;9.302;2023-11-21T14:55:49;9.18;99.91
66119;DHT22;52912;48.564;9.302;2023-11-21T14:58:15;9.11;99.47
66119;DHT22;52912;48.564;9.302;2023-11-21T15:00:40;8.99;99.64
66119;DHT22;52912;48.564;9.302;2023-11-21T15:03:06;8.92;99.99
66119;DHT22;52912;48.564;9.302;2023-11-21T15:05:31;9.02;99.99
66119;DHT22;52912;48.564;9.302;2023-11-21T15:07:58;9.05;99.99
66119;DHT22;52912;48.564;9.302;2023-11-21T15:10:24;8.98;99.99
66119;DHT22;52912;48.564;9.302;2023-11-21T15:12:49;8.92;99.99
66119;DHT22;52912;48.564;9.302;2023-11-21T15:15:15;8.81;99.99
66119;DHT22;52912;48.564;9.302;2023-11-21T15:17:40;8.95;99.99
66119;DHT22;52912;48.564;9.302;2023-11-21T15:20:07;8.81;99.99
66119;DHT22;52912;48.564;9.302;2023-11-21T15:22:32;8.85;99.99
66119;DHT22;52912;48.564;9.302;2023-11-21T15:24:59;8.87;99.99
66119;DHT22;52912;48.564;9.302;2023-11-21T15:27:25;8.75;99.99
66119;DHT22;52912;48.564;9.302;2023-11-21T15:29:50;8.75;99.99
66119;DHT22;52912;48.564;9.302;2023-11-21T15:32:16;8.75;99.99
66119;DHT22;52912;48.564;9.302;2023-11-21T15:34:41;8.78;99.99
66119;DHT22;52912;48.564;9.302;2023-11-21T15:37:08;8.73;99.99